Time;durP1;ratioP1;P1;durP2;ratioP2;P2;SDS_P1;SDS_P2;PMS_P1;PMS_P2;Temp;Humidity;BMP_temperature;BMP_pressure;BME280_temperature;BME280_humidity;BME280_pressure;Samples;Min_cycle;Max_cycle;Signal;HPM_P1;HPM_P2
2024/03/17 00:02:20;;;;;;;;;;;7.60;99.90;;;;;;4966663;28;20302;-64
2024/03/17 00:04:46;;;;;;;;;;;7.60;99.90;;;;;;4972253;28;19926;-63
2024/03/17 00:07:12;;;;;;;;;;;7.60;99.90;;;;;;4962901;28;20381;-63
2024/03/17 00:09:38;;;;;;;;;;;7.50;99.90;;;;;;4963383;28;20306;-63
2024/03/17 00:12:05;;;;;;;;;;;7.50;99.90;;;;;;4972159;28;19930;-63
2024/03/17 00:14:31;;;;;;;;;;;7.50;99.90;;;;;;4952595;28;19967;-64
2024/03/17 00:16:57;;;;;;;;;;;7.50;99.90;;;;;;4968084;28;19926;-63
2024/03/17 00:19:23;;;;;;;;;;;7.50;99.90;;;;;;4959986;28;20012;-64
2024/03/17 00:21:52;;;;;;;;;;;7.50;99.90;;;;;;4971696;28;19992;-63
2024/03/17 00:24:19;;;;;;;;;;;7.50;99.90;;;;;;4968305;28;19926;-63
2024/03/17 00:26:45;;;;;;;;;;;7.60;99.90;;;;;;4966429;28;20297;-63
2024/03/17 00:29:11;;;;;;;;;;;7.60;99.90;;;;;;4967999;28;19926;-63
2024/03/17 00:31:37;;;;;;;;;;;7.60;99.90;;;;;;4962255;28;19933;-63
2024/03/17 00:34:04;;;;;;;;;;;7.50;99.90;;;;;;4962752;28;19930;-63
2024/03/17 00:36:30;;;;;;;;;;;7.50;99.90;;;;;;4966164;28;19933;-63
2024/03/17 00:38:56;;;;;;;;;;;7.40;99.90;;;;;;4957722;28;19936;-63
2024/03/17 00:41:23;;;;;;;;;;;7.30;99.90;;;;;;4970343;28;19930;-63
2024/03/17 00:43:50;;;;;;;;;;;7.30;99.90;;;;;;4970820;28;19930;-63
2024/03/17 00:46:16;;;;;;;;;;;7.20;99.90;;;;;;4969609;28;19977;-64
2024/03/17 00:48:42;;;;;;;;;;;7.10;99.90;;;;;;4966648;28;19926;-63
2024/03/17 00:51:08;;;;;;;;;;;7.00;99.90;;;;;;4970340;28;19996;-63
2024/03/17 00:53:34;;;;;;;;;;;6.90;99.90;;;;;;4985432;28;20353;-63
2024/03/17 00:56:01;;;;;;;;;;;6.90;99.90;;;;;;4960391;28;19926;-63
2024/03/17 00:58:27;;;;;;;;;;;6.90;99.90;;;;;;4969955;28;19952;-63
2024/03/17 01:00:53;;;;;;;;;;;6.90;99.90;;;;;;4974662;28;19926;-63
2024/03/17 01:03:19;;;;;;;;;;;6.90;99.90;;;;;;4966206;28;19992;-63
2024/03/17 01:05:47;;;;;;;;;;;6.80;99.90;;;;;;4970700;28;19997;-63
2024/03/17 01:08:16;;;;;;;;;;;6.80;99.90;;;;;;4967261;28;19937;-63
2024/03/17 01:10:42;;;;;;;;;;;6.70;99.90;;;;;;4967578;28;19930;-64
2024/03/17 01:13:09;;;;;;;;;;;6.60;99.90;;;;;;4968202;28;20078;-63
2024/03/17 01:15:36;;;;;;;;;;;6.60;99.90;;;;;;4971135;28;20299;-63
2024/03/17 01:18:04;;;;;;;;;;;6.60;99.90;;;;;;4964938;28;19929;-63
2024/03/17 01:20:34;;;;;;;;;;;6.50;99.90;;;;;;4960282;28;20275;-63
2024/03/17 01:23:00;;;;;;;;;;;6.50;99.90;;;;;;4969409;28;20178;-63
2024/03/17 01:25:27;;;;;;;;;;;6.50;99.90;;;;;;4972715;28;19926;-63
2024/03/17 01:27:53;;;;;;;;;;;6.50;99.90;;;;;;4962720;28;19938;-64
2024/03/17 01:30:19;;;;;;;;;;;6.50;99.90;;;;;;4968284;28;20010;-63
2024/03/17 01:32:46;;;;;;;;;;;6.50;99.90;;;;;;4968429;28;19934;-63
2024/03/17 01:35:11;;;;;;;;;;;6.40;99.90;;;;;;4970851;28;19930;-63
2024/03/17 01:37:38;;;;;;;;;;;6.40;99.90;;;;;;4968433;28;19926;-63
2024/03/17 01:40:10;;;;;;;;;;;6.40;99.90;;;;;;4962097;28;20409;-63
2024/03/17 01:42:39;;;;;;;;;;;6.40;99.90;;;;;;4977541;28;21074;-63
2024/03/17 01:45:17;;;;;;;;;;;6.40;99.90;;;;;;4967379;28;19926;-63
2024/03/17 01:47:44;;;;;;;;;;;6.40;99.90;;;;;;4961860;28;19926;-63
2024/03/17 01:50:11;;;;;;;;;;;6.40;99.90;;;;;;4963000;28;19925;-64
2024/03/17 01:52:38;;;;;;;;;;;6.50;99.90;;;;;;4969567;28;19925;-63
2024/03/17 01:55:04;;;;;;;;;;;6.50;99.90;;;;;;4961749;28;20402;-63
2024/03/17 01:57:30;;;;;;;;;;;6.50;99.90;;;;;;4981592;28;19937;-63
2024/03/17 01:59:57;;;;;;;;;;;6.50;99.90;;;;;;4982904;28;19926;-63
2024/03/17 02:02:22;;;;;;;;;;;6.50;99.90;;;;;;4996410;28;19926;-64
2024/03/17 02:04:48;;;;;;;;;;;6.50;99.90;;;;;;4978693;28;19926;-71
2024/03/17 02:07:15;;;;;;;;;;;6.50;99.90;;;;;;4962844;28;19933;-63
2024/03/17 02:09:43;;;;;;;;;;;6.50;99.90;;;;;;4969543;28;19929;-63
2024/03/17 02:12:09;;;;;;;;;;;6.50;99.90;;;;;;4966185;28;19937;-63
2024/03/17 02:14:35;;;;;;;;;;;6.50;99.90;;;;;;4957717;28;20477;-63
2024/03/17 02:17:01;;;;;;;;;;;6.40;99.90;;;;;;4984504;28;19934;-63
2024/03/17 02:19:27;;;;;;;;;;;6.30;99.90;;;;;;4960181;28;20466;-63
2024/03/17 02:21:53;;;;;;;;;;;6.30;99.90;;;;;;4966621;28;20028;-64
2024/03/17 02:24:19;;;;;;;;;;;6.30;99.90;;;;;;4955979;28;19937;-63
2024/03/17 02:26:45;;;;;;;;;;;6.30;99.90;;;;;;4967544;28;19930;-63
2024/03/17 02:29:11;;;;;;;;;;;6.40;99.90;;;;;;4965519;28;19929;-63
2024/03/17 02:31:37;;;;;;;;;;;6.40;99.90;;;;;;4966378;28;20490;-63
2024/03/17 02:34:03;;;;;;;;;;;6.30;99.90;;;;;;4957656;28;19933;-63
2024/03/17 02:36:29;;;;;;;;;;;6.20;99.90;;;;;;4962428;28;19926;-63
2024/03/17 02:41:43;;;;;;;;;;;6.10;99.90;;;;;;4969784;28;19926;-64
2024/03/17 02:44:09;;;;;;;;;;;6.00;99.90;;;;;;4971316;28;19926;-63
2024/03/17 02:46:34;;;;;;;;;;;5.90;99.90;;;;;;4956570;28;19933;-63
2024/03/17 02:49:00;;;;;;;;;;;5.80;99.90;;;;;;4965397;28;19983;-63
2024/03/17 02:51:26;;;;;;;;;;;5.80;99.90;;;;;;4965162;28;20080;-63
2024/03/17 02:53:52;;;;;;;;;;;5.70;99.90;;;;;;4968089;28;19930;-63
2024/03/17 02:56:18;;;;;;;;;;;5.70;99.90;;;;;;4956906;28;20049;-63
2024/03/17 02:58:46;;;;;;;;;;;5.60;99.90;;;;;;4966628;28;19933;-63
2024/03/17 03:01:13;;;;;;;;;;;5.60;99.90;;;;;;4961462;28;19929;-63
2024/03/17 03:03:38;;;;;;;;;;;5.60;99.90;;;;;;4966780;28;19926;-63
2024/03/17 03:06:08;;;;;;;;;;;5.60;99.90;;;;;;4967262;28;20416;-63
2024/03/17 03:08:35;;;;;;;;;;;5.70;99.90;;;;;;4957477;28;20302;-63
2024/03/17 03:11:01;;;;;;;;;;;5.70;99.90;;;;;;4969504;28;20377;-63
2024/03/17 03:13:27;;;;;;;;;;;5.80;99.90;;;;;;4971899;28;19980;-63
2024/03/17 03:15:53;;;;;;;;;;;5.90;99.90;;;;;;4965702;28;19965;-63
2024/03/17 03:18:19;;;;;;;;;;;5.90;99.90;;;;;;4967172;28;19929;-63
2024/03/17 03:20:50;;;;;;;;;;;5.90;99.90;;;;;;4956396;28;19985;-63
2024/03/17 03:23:16;;;;;;;;;;;5.90;99.90;;;;;;4973015;28;20410;-65
2024/03/17 03:25:42;;;;;;;;;;;6.00;99.90;;;;;;4969881;28;19937;-63
2024/03/17 03:28:07;;;;;;;;;;;6.00;99.90;;;;;;4971992;28;19926;-63
2024/03/17 03:30:35;;;;;;;;;;;6.00;99.90;;;;;;4965666;28;19926;-63
2024/03/17 03:33:04;;;;;;;;;;;6.00;99.90;;;;;;4964609;28;19926;-63
2024/03/17 03:35:30;;;;;;;;;;;6.00;99.90;;;;;;4964738;28;20417;-63
2024/03/17 03:37:56;;;;;;;;;;;6.00;99.90;;;;;;4964475;28;19926;-63
2024/03/17 03:40:22;;;;;;;;;;;6.10;99.90;;;;;;4970971;28;19926;-63
2024/03/17 03:42:48;;;;;;;;;;;6.00;99.90;;;;;;4969793;28;19926;-63
2024/03/17 03:45:14;;;;;;;;;;;6.10;99.90;;;;;;4977444;28;20050;-63
2024/03/17 03:47:40;;;;;;;;;;;6.10;99.90;;;;;;4970208;28;19925;-63
2024/03/17 03:50:07;;;;;;;;;;;6.10;99.90;;;;;;4971086;28;19929;-64
2024/03/17 03:52:33;;;;;;;;;;;6.20;99.90;;;;;;4971345;28;19933;-64
2024/03/17 03:54:59;;;;;;;;;;;6.10;99.90;;;;;;4968147;28;19926;-63
2024/03/17 03:57:28;;;;;;;;;;;6.10;99.90;;;;;;4959754;28;19956;-63
2024/03/17 03:59:55;;;;;;;;;;;6.20;99.90;;;;;;4966619;28;20291;-63
2024/03/17 04:02:21;;;;;;;;;;;6.20;99.90;;;;;;4960933;28;19930;-63
2024/03/17 04:04:47;;;;;;;;;;;6.10;99.90;;;;;;4970274;28;19926;-63
2024/03/17 04:07:13;;;;;;;;;;;6.10;99.90;;;;;;4967094;28;19930;-63
2024/03/17 04:09:39;;;;;;;;;;;6.10;99.90;;;;;;4968695;28;19930;-63
2024/03/17 04:12:05;;;;;;;;;;;6.10;99.90;;;;;;4971347;28;20457;-63
2024/03/17 04:14:31;;;;;;;;;;;6.20;99.90;;;;;;4969099;28;19937;-63
2024/03/17 04:16:58;;;;;;;;;;;6.20;99.90;;;;;;4969787;28;19926;-63
2024/03/17 04:19:24;;;;;;;;;;;6.20;99.90;;;;;;4967231;28;20420;-63
2024/03/17 04:21:49;;;;;;;;;;;6.20;99.90;;;;;;4959847;28;19926;-63
2024/03/17 04:24:15;;;;;;;;;;;6.20;99.90;;;;;;4970127;28;20394;-63
2024/03/17 04:26:41;;;;;;;;;;;6.10;99.90;;;;;;4960385;28;19961;-63
2024/03/17 04:29:07;;;;;;;;;;;6.10;99.90;;;;;;4967835;28;19930;-64
2024/03/17 04:31:33;;;;;;;;;;;6.20;99.90;;;;;;4963651;28;20432;-63
2024/03/17 04:34:01;;;;;;;;;;;6.10;99.90;;;;;;4968295;28;20033;-64
2024/03/17 04:36:27;;;;;;;;;;;6.20;99.90;;;;;;4968402;28;19980;-63
2024/03/17 04:38:54;;;;;;;;;;;6.20;99.90;;;;;;4968011;28;19926;-63
2024/03/17 04:41:20;;;;;;;;;;;6.20;99.90;;;;;;4954262;28;19933;-64
2024/03/17 04:43:46;;;;;;;;;;;6.20;99.90;;;;;;4969086;28;20020;-63
2024/03/17 04:46:13;;;;;;;;;;;6.10;99.90;;;;;;4976334;28;19972;-63
2024/03/17 04:48:39;;;;;;;;;;;6.10;99.90;;;;;;4964184;28;19973;-63
2024/03/17 04:51:05;;;;;;;;;;;6.10;99.90;;;;;;4969146;28;19933;-63
2024/03/17 04:53:31;;;;;;;;;;;6.10;99.90;;;;;;4963932;28;19930;-63
2024/03/17 04:56:01;;;;;;;;;;;6.10;99.90;;;;;;4962164;28;19927;-63
2024/03/17 04:58:26;;;;;;;;;;;6.10;99.90;;;;;;4968634;28;19930;-63
2024/03/17 05:00:52;;;;;;;;;;;6.10;99.90;;;;;;4967004;28;20286;-63
2024/03/17 05:03:18;;;;;;;;;;;6.10;99.90;;;;;;4976047;28;19933;-63
2024/03/17 05:05:44;;;;;;;;;;;6.10;99.90;;;;;;4968864;28;19930;-63
2024/03/17 05:08:11;;;;;;;;;;;6.10;99.90;;;;;;4971205;28;20044;-63
2024/03/17 05:10:36;;;;;;;;;;;6.10;99.90;;;;;;4958669;28;19948;-63
2024/03/17 05:13:02;;;;;;;;;;;6.10;99.90;;;;;;4964087;28;20410;-63
2024/03/17 05:15:28;;;;;;;;;;;6.00;99.90;;;;;;4958559;28;19925;-63
2024/03/17 05:17:54;;;;;;;;;;;6.00;99.90;;;;;;4958320;28;19980;-63
2024/03/17 05:20:21;;;;;;;;;;;6.00;99.90;;;;;;4959742;28;20029;-63
2024/03/17 05:22:48;;;;;;;;;;;6.00;99.90;;;;;;4968721;28;19930;-63
2024/03/17 05:25:14;;;;;;;;;;;6.00;99.90;;;;;;4966550;28;19952;-63
2024/03/17 05:27:40;;;;;;;;;;;6.00;99.90;;;;;;4966189;28;19926;-64
2024/03/17 05:30:08;;;;;;;;;;;6.00;99.90;;;;;;4975367;28;20196;-63
2024/03/17 05:32:34;;;;;;;;;;;6.00;99.90;;;;;;4967702;28;19932;-63
2024/03/17 05:35:01;;;;;;;;;;;6.00;99.90;;;;;;4957664;28;19931;-63
2024/03/17 05:37:27;;;;;;;;;;;6.00;99.90;;;;;;4968700;28;19926;-64
2024/03/17 05:39:54;;;;;;;;;;;6.00;99.90;;;;;;4967675;28;19930;-63
2024/03/17 05:42:19;;;;;;;;;;;6.10;99.90;;;;;;4965840;28;19926;-63
2024/03/17 05:44:53;;;;;;;;;;;6.10;99.90;;;;;;4981395;28;19973;-63
2024/03/17 05:47:19;;;;;;;;;;;6.10;99.90;;;;;;4970420;28;20406;-63
2024/03/17 05:49:45;;;;;;;;;;;6.00;99.90;;;;;;4960764;28;19926;-63
2024/03/17 05:52:11;;;;;;;;;;;6.00;99.90;;;;;;4972094;28;19988;-63
2024/03/17 05:54:37;;;;;;;;;;;6.00;99.90;;;;;;4972697;28;19989;-63
2024/03/17 05:57:04;;;;;;;;;;;6.00;99.90;;;;;;4975067;28;20417;-63
2024/03/17 05:59:31;;;;;;;;;;;6.00;99.90;;;;;;4968332;28;19937;-63
2024/03/17 06:01:56;;;;;;;;;;;6.00;99.90;;;;;;4969061;28;19933;-63
2024/03/17 06:04:24;;;;;;;;;;;6.00;99.90;;;;;;4966929;28;20008;-63
2024/03/17 06:06:50;;;;;;;;;;;6.10;99.90;;;;;;4962056;28;19929;-63
2024/03/17 06:09:19;;;;;;;;;;;6.10;99.90;;;;;;4982350;28;19975;-63
2024/03/17 06:11:45;;;;;;;;;;;6.10;99.90;;;;;;4972375;28;19948;-63
2024/03/17 06:14:12;;;;;;;;;;;6.10;99.90;;;;;;4960117;28;19926;-63
2024/03/17 06:16:39;;;;;;;;;;;6.00;99.90;;;;;;4968115;28;19934;-63
2024/03/17 06:19:06;;;;;;;;;;;6.10;99.90;;;;;;4957146;28;19930;-63
2024/03/17 06:21:32;;;;;;;;;;;6.10;99.90;;;;;;4969596;28;19926;-63
2024/03/17 06:23:58;;;;;;;;;;;6.10;99.90;;;;;;4966902;28;19925;-63
2024/03/17 06:26:26;;;;;;;;;;;6.20;99.90;;;;;;4969582;28;19983;-63
2024/03/17 06:28:52;;;;;;;;;;;6.20;99.90;;;;;;4957198;28;20019;-63
2024/03/17 06:31:18;;;;;;;;;;;6.20;99.90;;;;;;4965263;28;19937;-63
2024/03/17 06:33:44;;;;;;;;;;;6.20;99.90;;;;;;4967187;28;19926;-63
2024/03/17 06:36:10;;;;;;;;;;;6.30;99.90;;;;;;4961656;28;20403;-63
2024/03/17 06:38:36;;;;;;;;;;;6.30;99.90;;;;;;4960219;28;19930;-63
2024/03/17 06:41:02;;;;;;;;;;;6.40;99.90;;;;;;4963535;28;19965;-63
2024/03/17 06:43:28;;;;;;;;;;;6.40;99.90;;;;;;4961379;28;20365;-63
2024/03/17 06:45:57;;;;;;;;;;;6.30;99.90;;;;;;4968892;28;20476;-63
2024/03/17 06:48:24;;;;;;;;;;;6.30;99.90;;;;;;4966002;28;19957;-63
2024/03/17 06:50:54;;;;;;;;;;;6.40;99.90;;;;;;4966293;28;19926;-63
2024/03/17 06:53:20;;;;;;;;;;;6.40;99.90;;;;;;4958278;28;19985;-63
2024/03/17 06:55:53;;;;;;;;;;;6.40;99.90;;;;;;4957886;28;19932;-63
2024/03/17 06:58:22;;;;;;;;;;;6.50;99.90;;;;;;4966227;28;19933;-63
2024/03/17 07:00:55;;;;;;;;;;;6.60;99.90;;;;;;4960643;28;19934;-63
2024/03/17 07:03:22;;;;;;;;;;;6.60;99.90;;;;;;4958429;28;19934;-64
2024/03/17 07:05:55;;;;;;;;;;;6.60;99.90;;;;;;4962013;28;19926;-63
2024/03/17 07:08:21;;;;;;;;;;;6.70;99.90;;;;;;4961232;28;19938;-63
2024/03/17 07:10:57;;;;;;;;;;;6.80;99.90;;;;;;4970043;28;19937;-63
2024/03/17 07:13:23;;;;;;;;;;;6.80;99.90;;;;;;4965871;28;20867;-63
2024/03/17 07:15:49;;;;;;;;;;;6.90;99.90;;;;;;4958154;28;19930;-64
2024/03/17 07:18:15;;;;;;;;;;;6.90;99.90;;;;;;4966722;28;19937;-63
2024/03/17 07:20:41;;;;;;;;;;;7.00;99.90;;;;;;4956585;28;19938;-63
2024/03/17 07:23:07;;;;;;;;;;;7.10;99.90;;;;;;4972119;28;19961;-63
2024/03/17 07:25:32;;;;;;;;;;;7.10;99.90;;;;;;4985167;28;19976;-63
2024/03/17 07:27:58;;;;;;;;;;;7.20;99.90;;;;;;4955409;28;20005;-64
2024/03/17 07:30:24;;;;;;;;;;;7.20;99.90;;;;;;4962822;28;19930;-63
2024/03/17 07:32:50;;;;;;;;;;;7.20;99.90;;;;;;4962684;28;20025;-63
2024/03/17 07:35:15;;;;;;;;;;;7.30;99.90;;;;;;4956550;28;20517;-63
2024/03/17 07:37:41;;;;;;;;;;;7.30;99.90;;;;;;4963031;28;20000;-63
2024/03/17 07:40:10;;;;;;;;;;;7.30;99.90;;;;;;4971042;28;19969;-63
2024/03/17 07:42:36;;;;;;;;;;;7.40;99.90;;;;;;4971137;28;19926;-63
2024/03/17 07:45:02;;;;;;;;;;;7.40;99.90;;;;;;4968620;28;19933;-64
2024/03/17 07:47:35;;;;;;;;;;;7.40;99.90;;;;;;4973412;28;19929;-63
2024/03/17 07:50:05;;;;;;;;;;;7.50;99.90;;;;;;4971166;28;19956;-63
2024/03/17 07:52:31;;;;;;;;;;;7.50;99.90;;;;;;4958194;28;19930;-63
2024/03/17 07:54:57;;;;;;;;;;;7.60;99.90;;;;;;4958986;28;19930;-63
2024/03/17 07:57:23;;;;;;;;;;;7.60;99.90;;;;;;4961900;28;20049;-63
2024/03/17 07:59:49;;;;;;;;;;;7.60;99.90;;;;;;4956346;28;20016;-63
2024/03/17 08:02:15;;;;;;;;;;;7.60;99.90;;;;;;4964643;28;20385;-63
2024/03/17 08:04:42;;;;;;;;;;;7.60;99.90;;;;;;4972029;28;19929;-64
2024/03/17 08:07:08;;;;;;;;;;;7.80;99.90;;;;;;4968422;28;19926;-63
2024/03/17 08:09:34;;;;;;;;;;;7.90;99.90;;;;;;4969536;28;19930;-63
2024/03/17 08:11:59;;;;;;;;;;;7.90;99.90;;;;;;4972809;28;20444;-64
2024/03/17 08:14:26;;;;;;;;;;;8.00;99.90;;;;;;4976902;28;20021;-64
2024/03/17 08:16:52;;;;;;;;;;;8.10;99.90;;;;;;4974505;28;19926;-63
2024/03/17 08:19:18;;;;;;;;;;;8.10;99.90;;;;;;4971377;28;19926;-63
2024/03/17 08:21:45;;;;;;;;;;;8.20;99.90;;;;;;4958195;28;19984;-64
2024/03/17 08:24:11;;;;;;;;;;;8.40;99.90;;;;;;4969488;28;20024;-64
2024/03/17 08:26:36;;;;;;;;;;;8.50;99.90;;;;;;4983260;28;20369;-63
2024/03/17 08:29:02;;;;;;;;;;;8.60;99.90;;;;;;4972587;28;19964;-64
2024/03/17 08:31:28;;;;;;;;;;;8.70;99.90;;;;;;4956873;28;19933;-64
2024/03/17 08:33:55;;;;;;;;;;;8.80;99.90;;;;;;4970792;28;19976;-63
2024/03/17 08:36:21;;;;;;;;;;;8.90;99.90;;;;;;4971940;28;20010;-63
2024/03/17 08:38:47;;;;;;;;;;;9.00;99.90;;;;;;4971500;28;19933;-63
2024/03/17 08:41:13;;;;;;;;;;;9.20;99.90;;;;;;4971299;28;20033;-64
2024/03/17 08:43:41;;;;;;;;;;;9.30;99.90;;;;;;4955780;28;19958;-63
2024/03/17 08:46:08;;;;;;;;;;;9.40;99.90;;;;;;4966544;28;19926;-63
2024/03/17 08:48:34;;;;;;;;;;;9.60;99.90;;;;;;4963586;28;19930;-63
2024/03/17 08:51:04;;;;;;;;;;;9.80;99.90;;;;;;4967482;28;20437;-63
2024/03/17 08:53:30;;;;;;;;;;;10.00;99.90;;;;;;4954127;28;19926;-63
2024/03/17 08:55:56;;;;;;;;;;;10.00;99.90;;;;;;4970415;28;19929;-63
2024/03/17 08:58:22;;;;;;;;;;;10.10;99.90;;;;;;4959892;28;19930;-63
2024/03/17 09:00:49;;;;;;;;;;;10.40;99.90;;;;;;4972842;28;20563;-64
2024/03/17 09:03:14;;;;;;;;;;;10.40;99.90;;;;;;4968897;28;19925;-63
2024/03/17 09:05:41;;;;;;;;;;;10.50;99.90;;;;;;4973065;28;19926;-64
2024/03/17 09:08:10;;;;;;;;;;;10.70;99.90;;;;;;4967323;28;20399;-63
2024/03/17 09:10:40;;;;;;;;;;;10.80;99.90;;;;;;4956530;28;19929;-63
2024/03/17 09:13:05;;;;;;;;;;;10.80;99.90;;;;;;4964748;28;20472;-64
2024/03/17 09:15:31;;;;;;;;;;;10.90;99.90;;;;;;4971567;28;19934;-63
2024/03/17 09:17:58;;;;;;;;;;;10.90;99.90;;;;;;4957985;28;19985;-64
2024/03/17 09:20:24;;;;;;;;;;;10.90;99.90;;;;;;4963982;28;20420;-64
2024/03/17 09:22:50;;;;;;;;;;;10.90;99.90;;;;;;4957072;28;19961;-63
2024/03/17 09:25:16;;;;;;;;;;;10.90;99.90;;;;;;4957661;28;19957;-63
2024/03/17 09:27:42;;;;;;;;;;;10.90;99.90;;;;;;4968273;28;19926;-64
2024/03/17 09:30:11;;;;;;;;;;;11.00;99.90;;;;;;4971441;28;19933;-63
2024/03/17 09:32:37;;;;;;;;;;;11.00;99.90;;;;;;4959356;28;20418;-63
2024/03/17 09:35:03;;;;;;;;;;;11.10;99.90;;;;;;4970721;28;19926;-64
2024/03/17 09:37:31;;;;;;;;;;;11.10;99.90;;;;;;4957872;28;20461;-64
2024/03/17 09:40:00;;;;;;;;;;;11.20;99.90;;;;;;4968888;28;19929;-63
2024/03/17 09:42:27;;;;;;;;;;;11.30;99.90;;;;;;4967616;28;19976;-64
2024/03/17 09:44:54;;;;;;;;;;;11.50;99.90;;;;;;4971588;28;19930;-63
2024/03/17 09:47:21;;;;;;;;;;;11.60;99.90;;;;;;4965062;28;20435;-63
2024/03/17 09:49:48;;;;;;;;;;;11.60;99.90;;;;;;4969168;28;19926;-63
2024/03/17 09:52:24;;;;;;;;;;;11.70;99.90;;;;;;4977416;28;20033;-63
2024/03/17 09:54:53;;;;;;;;;;;11.90;99.90;;;;;;4979596;28;19932;-63
2024/03/17 09:57:21;;;;;;;;;;;12.00;99.90;;;;;;4978838;28;20421;-64
2024/03/17 09:59:51;;;;;;;;;;;12.00;99.90;;;;;;4975416;28;19926;-63
2024/03/17 10:02:18;;;;;;;;;;;12.00;99.90;;;;;;4981332;28;20426;-63
2024/03/17 10:04:44;;;;;;;;;;;11.90;99.90;;;;;;4978038;28;19933;-63
2024/03/17 10:07:10;;;;;;;;;;;11.80;99.90;;;;;;4974049;28;19933;-63
2024/03/17 10:09:36;;;;;;;;;;;11.80;99.90;;;;;;4974617;28;19930;-63
2024/03/17 10:12:02;;;;;;;;;;;11.70;99.90;;;;;;4975191;28;19938;-63
2024/03/17 10:14:28;;;;;;;;;;;11.70;99.90;;;;;;4971568;28;19976;-64
2024/03/17 10:16:54;;;;;;;;;;;11.70;99.90;;;;;;4962071;28;19930;-64
2024/03/17 10:19:20;;;;;;;;;;;11.70;99.90;;;;;;4974252;28;19933;-64
2024/03/17 10:21:47;;;;;;;;;;;11.70;99.90;;;;;;4977221;28;19926;-61
2024/03/17 10:24:18;;;;;;;;;;;11.80;99.90;;;;;;4977647;28;19925;-61
2024/03/17 10:26:46;;;;;;;;;;;11.90;99.90;;;;;;4973503;28;19925;-63
2024/03/17 10:29:22;;;;;;;;;;;12.00;99.90;;;;;;4958798;28;19937;-61
2024/03/17 10:31:48;;;;;;;;;;;12.00;99.90;;;;;;4979819;28;19930;-62
2024/03/17 10:34:16;;;;;;;;;;;12.20;99.90;;;;;;4978746;28;19956;-61
2024/03/17 10:36:42;;;;;;;;;;;12.40;99.90;;;;;;4972834;28;19930;-61
2024/03/17 10:39:28;;;;;;;;;;;12.40;99.90;;;;;;4973952;28;19980;-61
2024/03/17 10:41:59;;;;;;;;;;;12.40;99.90;;;;;;4983190;28;19941;-61
2024/03/17 10:44:26;;;;;;;;;;;12.50;99.90;;;;;;4955874;28;19940;-62
2024/03/17 10:46:53;;;;;;;;;;;12.50;99.90;;;;;;4975289;28;19994;-62
2024/03/17 10:49:21;;;;;;;;;;;12.50;99.90;;;;;;4976736;28;19976;-62
2024/03/17 10:51:48;;;;;;;;;;;12.60;99.90;;;;;;4974867;28;19930;-62
2024/03/17 10:54:20;;;;;;;;;;;12.70;99.90;;;;;;4962338;28;19937;-62
2024/03/17 10:56:46;;;;;;;;;;;12.80;99.90;;;;;;4967971;28;19933;-62
2024/03/17 10:59:12;;;;;;;;;;;12.80;99.90;;;;;;4978176;28;19953;-62
2024/03/17 11:01:40;;;;;;;;;;;13.00;99.90;;;;;;4956004;28;20386;-62
2024/03/17 11:04:08;;;;;;;;;;;13.00;99.90;;;;;;4964886;28;20012;-62
2024/03/17 11:06:34;;;;;;;;;;;13.10;99.90;;;;;;4982960;28;20371;-62
2024/03/17 11:09:00;;;;;;;;;;;13.10;99.90;;;;;;4962374;28;20408;-62
2024/03/17 11:11:36;;;;;;;;;;;13.10;99.90;;;;;;4970247;28;19940;-62
2024/03/17 11:14:19;;;;;;;;;;;13.10;99.90;;;;;;4973137;28;20402;-62
2024/03/17 11:16:45;;;;;;;;;;;13.10;99.90;;;;;;4954795;28;20417;-62
2024/03/17 11:19:16;;;;;;;;;;;13.10;99.90;;;;;;4965131;28;20433;-62
2024/03/17 11:21:42;;;;;;;;;;;13.10;99.90;;;;;;4966870;28;20029;-62
2024/03/17 11:24:18;;;;;;;;;;;13.10;99.90;;;;;;4965724;28;19930;-62
2024/03/17 11:26:44;;;;;;;;;;;13.00;99.90;;;;;;4967295;28;20417;-62
2024/03/17 11:29:26;;;;;;;;;;;12.90;99.90;;;;;;4965999;28;19926;-62
2024/03/17 11:31:55;;;;;;;;;;;12.90;99.90;;;;;;4969733;28;19937;-62
2024/03/17 11:34:31;;;;;;;;;;;12.90;99.90;;;;;;4967724;28;19937;-61
2024/03/17 11:36:58;;;;;;;;;;;12.90;99.90;;;;;;4967368;28;20017;-62
2024/03/17 11:39:42;;;;;;;;;;;12.90;99.90;;;;;;4955162;28;19926;-62
2024/03/17 11:42:14;;;;;;;;;;;12.90;99.90;;;;;;4966628;28;19927;-64
2024/03/17 11:44:53;;;;;;;;;;;13.00;99.90;;;;;;4974155;28;19934;-63
2024/03/17 11:47:19;;;;;;;;;;;13.20;99.90;;;;;;4971189;28;19934;-62
2024/03/17 11:49:45;;;;;;;;;;;13.30;99.90;;;;;;4978877;28;20106;-62
2024/03/17 11:52:12;;;;;;;;;;;13.40;99.90;;;;;;4970861;28;20391;-62
2024/03/17 11:54:43;;;;;;;;;;;13.40;99.90;;;;;;4968130;28;19926;-62
2024/03/17 11:57:12;;;;;;;;;;;13.50;99.90;;;;;;4965888;28;19926;-62
2024/03/17 11:59:38;;;;;;;;;;;13.40;99.90;;;;;;4959270;28;19932;-62
2024/03/17 12:02:21;;;;;;;;;;;13.50;99.90;;;;;;4970181;28;19930;-62
2024/03/17 12:04:48;;;;;;;;;;;13.50;99.90;;;;;;4975362;28;19933;-62
2024/03/17 12:07:14;;;;;;;;;;;13.50;99.90;;;;;;4972784;28;19953;-62
2024/03/17 12:09:41;;;;;;;;;;;13.50;99.90;;;;;;4975963;28;19926;-62
2024/03/17 12:12:13;;;;;;;;;;;13.60;99.90;;;;;;4974904;28;19933;-62
2024/03/17 12:14:39;;;;;;;;;;;13.70;99.90;;;;;;4956987;28;20314;-62
2024/03/17 12:17:11;;;;;;;;;;;13.90;99.90;;;;;;4989030;28;19981;-62
2024/03/17 12:19:40;;;;;;;;;;;13.90;99.90;;;;;;4967407;28;19925;-62
2024/03/17 12:22:06;;;;;;;;;;;13.90;99.90;;;;;;4954737;28;19932;-62
2024/03/17 12:24:33;;;;;;;;;;;14.00;99.90;;;;;;4972263;28;19929;-62
2024/03/17 12:27:00;;;;;;;;;;;14.00;99.90;;;;;;4970196;28;19930;-62
2024/03/17 12:29:27;;;;;;;;;;;14.00;99.90;;;;;;4971874;28;19956;-62
2024/03/17 12:31:54;;;;;;;;;;;13.90;99.90;;;;;;4957789;28;19926;-62
2024/03/17 12:34:20;;;;;;;;;;;14.00;99.90;;;;;;4969988;28;19959;-62
2024/03/17 12:36:46;;;;;;;;;;;14.00;99.90;;;;;;4971504;28;19932;-62
2024/03/17 12:39:22;;;;;;;;;;;14.00;99.90;;;;;;4971421;28;19940;-62
2024/03/17 12:42:20;;;;;;;;;;;14.10;99.90;;;;;;4965049;28;20369;-62
2024/03/17 12:44:47;;;;;;;;;;;13.90;99.90;;;;;;4944433;28;20404;-62
2024/03/17 12:47:17;;;;;;;;;;;13.70;99.90;;;;;;4967499;28;19938;-62
2024/03/17 12:49:47;;;;;;;;;;;13.70;99.90;;;;;;4959265;28;19933;-62
2024/03/17 12:52:20;;;;;;;;;;;13.70;99.90;;;;;;4967287;28;19984;-62
2024/03/17 13:00:32;;;;;;;;;;;13.60;99.90;;;;;;4988156;28;20491;-62
2024/03/17 13:02:58;;;;;;;;;;;13.50;99.90;;;;;;4967327;28;19934;-62
2024/03/17 13:05:24;;;;;;;;;;;13.50;99.90;;;;;;4967243;28;19983;-62
2024/03/17 13:07:50;;;;;;;;;;;13.50;99.90;;;;;;4967617;28;20394;-62
2024/03/17 13:10:17;;;;;;;;;;;13.60;99.90;;;;;;4971126;28;19930;-62
2024/03/17 13:12:43;;;;;;;;;;;13.70;99.90;;;;;;4963470;28;20290;-63
2024/03/17 13:15:11;;;;;;;;;;;13.70;99.90;;;;;;4973549;28;20028;-63
2024/03/17 13:17:37;;;;;;;;;;;13.70;99.90;;;;;;4978814;28;19936;-64
2024/03/17 13:20:04;;;;;;;;;;;13.70;99.90;;;;;;4960453;28;19926;-64
2024/03/17 13:22:30;;;;;;;;;;;13.70;99.90;;;;;;4971024;28;19933;-62
2024/03/17 13:24:55;;;;;;;;;;;13.60;99.90;;;;;;4952868;28;19926;-62
2024/03/17 13:27:21;;;;;;;;;;;13.70;99.90;;;;;;4958635;28;19961;-62
2024/03/17 13:29:48;;;;;;;;;;;13.70;99.90;;;;;;4964903;28;19937;-62
2024/03/17 13:32:15;;;;;;;;;;;13.70;99.90;;;;;;4962404;28;19930;-62
2024/03/17 13:34:41;;;;;;;;;;;13.80;99.90;;;;;;4966750;28;19937;-62
2024/03/17 13:37:07;;;;;;;;;;;13.80;99.90;;;;;;4966841;28;19930;-62
2024/03/17 13:39:33;;;;;;;;;;;13.80;99.90;;;;;;4971778;28;20425;-62
2024/03/17 13:42:03;;;;;;;;;;;13.80;99.90;;;;;;4970384;28;19946;-62
2024/03/17 13:44:29;;;;;;;;;;;13.70;99.90;;;;;;4973804;28;19926;-62
2024/03/17 13:46:55;;;;;;;;;;;13.70;99.90;;;;;;4970108;28;19933;-62
2024/03/17 13:49:22;;;;;;;;;;;13.70;99.90;;;;;;4962808;28;19929;-62
2024/03/17 13:51:48;;;;;;;;;;;13.70;99.90;;;;;;4957997;28;20383;-62
2024/03/17 13:54:14;;;;;;;;;;;13.70;99.90;;;;;;4969416;28;19938;-62
2024/03/17 13:56:40;;;;;;;;;;;13.70;99.90;;;;;;4958013;28;19937;-62
2024/03/17 13:59:06;;;;;;;;;;;13.70;99.90;;;;;;4966981;28;19926;-62
2024/03/17 14:01:33;;;;;;;;;;;13.70;99.90;;;;;;4958904;28;19965;-62
2024/03/17 14:03:58;;;;;;;;;;;13.70;99.90;;;;;;4965400;28;19926;-62
2024/03/17 14:06:25;;;;;;;;;;;13.80;99.90;;;;;;4959525;28;19969;-62
2024/03/17 14:08:50;;;;;;;;;;;13.80;99.90;;;;;;4966869;28;19930;-62
2024/03/17 14:11:16;;;;;;;;;;;13.70;99.90;;;;;;4968204;28;19965;-62
2024/03/17 14:13:42;;;;;;;;;;;13.70;99.90;;;;;;4963251;28;20021;-62
2024/03/17 14:16:08;;;;;;;;;;;13.70;99.90;;;;;;4957713;28;19929;-62
2024/03/17 14:18:35;;;;;;;;;;;13.80;99.90;;;;;;4967364;28;20420;-62
2024/03/17 14:21:01;;;;;;;;;;;13.70;99.90;;;;;;4968513;28;20337;-62
2024/03/17 14:23:29;;;;;;;;;;;13.70;99.90;;;;;;4971431;28;19926;-63
2024/03/17 14:25:56;;;;;;;;;;;13.70;99.90;;;;;;4971776;28;20364;-64
2024/03/17 14:28:22;;;;;;;;;;;13.70;99.90;;;;;;4962996;28;19930;-64
2024/03/17 14:30:48;;;;;;;;;;;13.70;99.90;;;;;;4976876;28;19926;-64
2024/03/17 14:33:14;;;;;;;;;;;13.60;99.90;;;;;;4962681;28;20554;-64
2024/03/17 14:35:41;;;;;;;;;;;13.60;99.90;;;;;;4962119;28;20354;-64